首页
METAR-TAF:

METAR-TAF

机场 :

Lydd, 英格兰

纬度: 50-57N, 经度: 000-56E, 海拔: 3米

当前天气观测

该预报发布于19分钟前的00:20 UTC
风速21节,风向东南,有时为31节阵风
温度 8°C
湿度 87%
气压 991 hPa
能见度10公里或以上
小雨

METAR: EGMD 140020Z AUTO 14021G31KT 9999 -RA BKN014/// BKN019/// OVC030/// 08/06 Q0991

时间: 00:39 (00:39 UTC)

预报

该预报发布于1小时和39分钟前的23:00 UTC
预报有效从14日的 00点(UTC)到 14日的 09点(UTC)
风速20节,风向南转南东
能见度10公里或以上
多云层高于2500英尺
短暂存在
从 14日的 00点(UTC)到 14日的 09点(UTC)
能見度: 6000
多云层高于1400英尺
阵雨
几率 30% :
短暂存在
从 14日的 00点(UTC)到 14日的 03点(UTC)
能見度: 4000
大阵雨
成为
从 14日的 04点(UTC)到 14日的 06点(UTC)
风速3节,风向多变
成为
从 14日的 06点(UTC)到 14日的 09点(UTC)
风速12节,风向南转西南
几率 30% :
短暂存在
从 14日的 06点(UTC)到 14日的 09点(UTC)
能見度: 4000
多云层高于900英尺, 积雨云.
雷暴, (大) 小冰雹或雪球

TAF: EGMD 132300Z 1400/1409 16020KT 9999 BKN025 TEMPO 1400/1409 6000 SHRA BKN014 PROB30 TEMPO 1400/1403 4000 +SHRA BECMG 1404/1406 VRB03KT BECMG 1406/1409 20012KT PROB30 TEMPO 1406/1409 4000 +TSGS BKN009CB

超过4000个机场的气象观测和天气预报(METAR&TAF报告)。

可查询的气象台以黄色和红色小点在地图上表示。

将鼠标移到小点上方,可查看气象台名称。

然后点击查看天气观测和预报。

如需切换地图:点击带黑十字的绿色按钮放大地图;点击带横线的绿色按钮缩小地图;或者点击绿色箭头查看邻近地区的地图。


METAR-TAF: